Time;durP1;ratioP1;P1;durP2;ratioP2;P2;SDS_P1;SDS_P2;PMS_P1;PMS_P2;Temp;Humidity;BMP_temperature;BMP_pressure;BME280_temperature;BME280_humidity;BME280_pressure;Samples;Min_cycle;Max_cycle;Signal;HPM_P1;HPM_P2
2021/08/18 08:54:48;;;;;;;9.98;5.57;;;;;;;;;;2090224;27;99931;-20
2021/08/18 08:55:49;;;;;;;12.07;5.30;;;;;;;;;;2089168;27;99994;-19
2021/08/18 08:56:51;;;;;;;11.25;4.90;;;;;;;;;;2089164;27;99876;-15
2021/08/18 08:57:57;;;;;;;8.00;4.63;;;;;;;;;;2088253;27;99993;-17
2021/08/18 08:58:58;;;;;;;10.18;5.03;;;;;;;;;;2088594;27;100003;-18
2021/08/18 08:59:58;;;;;;;;;;;;;;;;;;2089318;27;99890;-17
2021/08/18 09:01:00;;;;;;;13.88;4.93;;;;;;;;;;2088828;27;99980;-17
2021/08/18 09:02:08;;;;;;;9.30;5.10;;;;;;;;;;2087957;27;100168;-19
2021/08/18 09:03:15;;;;;;;11.65;4.90;;;;;;;;;;2088389;27;100302;-18
2021/08/18 09:04:31;;;;;;;14.93;5.40;;;;;;;;;;2089301;27;99834;-20
2021/08/18 09:05:32;;;;;;;9.45;4.95;;;;;;;;;;2089224;27;100279;-19
2021/08/18 09:06:34;;;;;;;10.00;4.82;;;;;;;;;;2088162;27;99956;-20
2021/08/18 09:07:35;;;;;;;10.70;5.10;;;;;;;;;;2079483;27;100166;-19
2021/08/18 09:08:46;;;;;;;;;;;;;;;;;;2080726;28;100247;-18
2021/08/18 09:09:52;;;;;;;7.13;4.45;;;;;;;;;;2088277;27;99938;-21
2021/08/18 09:11:04;;;;;;;13.18;4.78;;;;;;;;;;2089229;27;100469;-20
2021/08/18 09:12:15;;;;;;;12.35;5.20;;;;;;;;;;2088539;27;99895;-17
2021/08/18 09:13:18;;;;;;;10.30;4.90;;;;;;;;;;2088733;27;99806;-19
2021/08/18 09:14:29;;;;;;;9.57;4.95;;;;;;;;;;2088894;27;100322;-17
2021/08/18 09:15:29;;;;;;;;;;;;;;;;;;2089984;27;99882;-19
2021/08/18 09:16:33;;;;;;;9.05;5.28;;;;;;;;;;2089461;27;100551;-18
2021/08/18 09:17:37;;;;;;;16.90;5.75;;;;;;;;;;2089560;27;99933;-17
2021/08/18 09:18:56;;;;;;;11.48;5.13;;;;;;;;;;2089042;27;100061;-17
2021/08/18 09:20:10;;;;;;;12.30;4.80;;;;;;;;;;2089033;27;100113;-17
2021/08/18 09:21:31;;;;;;;9.88;5.20;;;;;;;;;;2089354;27;99933;-19
2021/08/18 09:22:35;;;;;;;11.60;5.75;;;;;;;;;;2089255;27;99942;-17
2021/08/18 09:23:36;;;;;;;11.88;5.28;;;;;;;;;;2089493;27;99866;-18
2021/08/18 09:24:37;;;;;;;;;;;;;;;;;;2089789;27;99801;-17
2021/08/18 09:25:39;;;;;;;8.35;4.60;;;;;;;;;;2089510;27;99991;-19
2021/08/18 09:26:42;;;;;;;9.27;5.15;;;;;;;;;;2089359;27;99934;-18
2021/08/18 09:27:46;;;;;;;12.27;4.90;;;;;;;;;;2089341;27;99959;-18
2021/08/18 09:28:47;;;;;;;10.88;5.10;;;;;;;;;;2089225;27;99772;-17
2021/08/18 09:29:48;;;;;;;11.98;5.20;;;;;;;;;;2088325;27;100015;-21
2021/08/18 09:30:57;;;;;;;13.20;5.20;;;;;;;;;;2088397;27;99938;-20
2021/08/18 09:32:17;;;;;;;9.23;4.78;;;;;;;;;;2089220;27;99836;-18
2021/08/18 09:33:19;;;;;;;11.00;5.10;;;;;;;;;;2089138;27;99839;-15
2021/08/18 09:34:20;;;;;;;11.13;4.88;;;;;;;;;;2089231;27;100320;-17
2021/08/18 09:35:22;;;;;;;;;;;;;;;;;;2089437;27;100049;-21
2021/08/18 09:36:25;;;;;;;8.48;4.93;;;;;;;;;;2087181;27;100218;-19
2021/08/18 09:37:27;;;;;;;10.68;4.85;;;;;;;;;;2080125;27;100055;-18
2021/08/18 09:38:28;;;;;;;12.20;5.03;;;;;;;;;;2080292;28;99963;-19
2021/08/18 09:39:29;;;;;;;13.27;5.75;;;;;;;;;;2080819;27;99872;-18
2021/08/18 09:40:32;;;;;;;;;;;;;;;;;;2081192;27;99940;-18
2021/08/18 09:41:33;;;;;;;15.70;5.22;;;;;;;;;;2080874;27;99977;-19
2021/08/18 09:42:34;;;;;;;12.13;4.78;;;;;;;;;;2079930;28;100027;-17
2021/08/18 09:43:35;;;;;;;14.73;5.40;;;;;;;;;;2079937;28;100024;-18
2021/08/18 09:44:36;;;;;;;;;;;;;;;;;;2080394;28;99955;-19
2021/08/18 09:45:42;;;;;;;8.23;4.87;;;;;;;;;;2080174;28;99986;-19
2021/08/18 09:46:43;;;;;;;8.65;4.93;;;;;;;;;;2087701;27;99963;-19
2021/08/18 09:47:50;;;;;;;;;;;;;;;;;;2080908;27;99993;-15
2021/08/18 09:49:12;;;;;;;11.50;5.00;;;;;;;;;;2080369;27;99914;-16
2021/08/18 09:50:14;;;;;;;12.35;4.60;;;;;;;;;;2080506;27;100054;-19
2021/08/18 09:51:14;;;;;;;;;;;;;;;;;;2080508;28;100135;-15
2021/08/18 09:52:20;;;;;;;11.48;5.28;;;;;;;;;;2080217;28;99936;-16
2021/08/18 09:53:29;;;;;;;10.30;4.82;;;;;;;;;;2080460;27;100012;-18
2021/08/18 09:54:37;;;;;;;9.50;4.93;;;;;;;;;;2080416;27;101378;-17
2021/08/18 09:55:41;;;;;;;9.48;5.38;;;;;;;;;;2074945;28;100232;-16
2021/08/18 09:56:48;;;;;;;9.95;4.50;;;;;;;;;;2074662;28;100559;-19
2021/08/18 09:57:50;;;;;;;10.02;4.95;;;;;;;;;;2074752;28;99928;-15
2021/08/18 09:58:57;;;;;;;9.85;5.10;;;;;;;;;;2074829;28;100144;-19
2021/08/18 09:59:59;;;;;;;11.40;5.30;;;;;;;;;;2082539;28;99906;-20
2021/08/18 10:01:08;;;;;;;11.75;5.13;;;;;;;;;;2081907;28;100019;-20
2021/08/18 10:02:10;;;;;;;11.15;4.70;;;;;;;;;;2074887;28;99940;-20
2021/08/18 10:03:12;;;;;;;11.00;4.95;;;;;;;;;;2075314;28;100379;-16
2021/08/18 10:04:13;;;;;;;12.07;4.90;;;;;;;;;;2082547;28;100294;-18
2021/08/18 10:05:14;;;;;;;;;;;;;;;;;;2082727;28;100042;-19
2021/08/18 10:06:16;;;;;;;13.32;5.30;;;;;;;;;;2082253;28;100012;-17
2021/08/18 10:07:17;;;;;;;8.82;4.47;;;;;;;;;;2074358;28;100029;-19
2021/08/18 10:08:18;;;;;;;13.38;5.65;;;;;;;;;;2082303;28;100044;-18
2021/08/18 10:09:19;;;;;;;9.55;4.90;;;;;;;;;;2083629;28;100185;-21
2021/08/18 10:10:21;;;;;;;9.48;4.95;;;;;;;;;;2083365;28;100220;-19
2021/08/18 10:11:24;;;;;;;14.18;5.18;;;;;;;;;;2083119;27;100307;-16
2021/08/18 10:12:25;;;;;;;8.00;5.13;;;;;;;;;;2082742;28;99912;-18
2021/08/18 10:13:27;;;;;;;16.20;5.38;;;;;;;;;;2082935;27;99868;-16
2021/08/18 10:14:28;;;;;;;13.18;5.78;;;;;;;;;;2082460;27;100089;-17
2021/08/18 10:15:29;;;;;;;9.20;4.88;;;;;;;;;;2083326;28;99865;-19
2021/08/18 10:16:31;;;;;;;12.13;5.00;;;;;;;;;;2083305;28;100021;-18
2021/08/18 10:17:40;;;;;;;11.13;5.50;;;;;;;;;;2082802;28;100018;-17
2021/08/18 10:18:43;;;;;;;10.52;4.95;;;;;;;;;;2075241;28;100126;-16
2021/08/18 10:19:51;;;;;;;11.10;5.18;;;;;;;;;;2082549;28;100114;-17
2021/08/18 10:20:56;;;;;;;11.70;5.05;;;;;;;;;;2083223;27;99988;-19
2021/08/18 10:22:00;;;;;;;14.25;4.90;;;;;;;;;;2083150;28;99959;-15
2021/08/18 10:23:07;;;;;;;9.10;4.95;;;;;;;;;;2083178;27;100067;-19
2021/08/18 10:24:28;;;;;;;11.40;4.82;;;;;;;;;;2083499;27;99868;-21
2021/08/18 10:25:34;;;;;;;11.45;5.05;;;;;;;;;;2082735;27;99928;-17
2021/08/18 10:26:35;;;;;;;11.98;5.43;;;;;;;;;;2082960;27;100034;-20
2021/08/18 10:27:47;;;;;;;9.63;4.60;;;;;;;;;;2082907;28;99877;-16
2021/08/18 10:29:13;;;;;;;10.00;4.88;;;;;;;;;;2082723;28;99910;-15
2021/08/18 10:30:25;;;;;;;13.00;5.07;;;;;;;;;;2083058;27;99963;-17
2021/08/18 10:31:42;;;;;;;10.82;4.82;;;;;;;;;;2083003;28;99834;-19
2021/08/18 10:32:43;;;;;;;8.85;4.75;;;;;;;;;;2082856;27;100398;-21
2021/08/18 10:33:53;;;;;;;8.90;4.60;;;;;;;;;;2082076;28;100316;-17
2021/08/18 10:34:54;;;;;;;10.88;5.15;;;;;;;;;;2082554;28;100418;-15
2021/08/18 10:35:55;;;;;;;8.32;4.90;;;;;;;;;;2082338;28;100256;-20
2021/08/18 10:36:58;;;;;;;11.55;4.57;;;;;;;;;;2083018;27;99900;-20
2021/08/18 10:38:24;;;;;;;13.07;4.88;;;;;;;;;;2082910;27;100081;-20
2021/08/18 10:39:24;;;;;;;12.15;5.15;;;;;;;;;;2081466;27;100515;-19
2021/08/18 10:40:33;;;;;;;9.48;4.88;;;;;;;;;;2082774;27;100255;-15
2021/08/18 10:41:59;;;;;;;8.25;4.65;;;;;;;;;;2082526;28;99983;-17
2021/08/18 10:43:00;;;;;;;11.55;4.60;;;;;;;;;;2083114;28;100343;-18
2021/08/18 10:44:01;;;;;;;;;;;;;;;;;;2082321;27;99923;-17
2021/08/18 10:45:23;;;;;;;8.90;4.53;;;;;;;;;;2082112;28;100095;-19
2021/08/18 10:46:25;;;;;;;10.10;4.63;;;;;;;;;;2074685;27;100204;-19
2021/08/18 10:47:28;;;;;;;13.18;5.20;;;;;;;;;;2082478;28;100231;-19
2021/08/18 10:49:07;;;;;;;9.80;4.95;;;;;;;;;;2082160;27;99962;-15
2021/08/18 10:50:23;;;;;;;11.55;4.97;;;;;;;;;;2072667;28;100128;-18
2021/08/18 10:51:39;;;;;;;9.35;4.35;;;;;;;;;;2073126;28;99989;-19
2021/08/18 10:52:40;;;;;;;9.85;4.35;;;;;;;;;;2073250;28;100068;-20
2021/08/18 10:53:41;;;;;;;;;;;;;;;;;;2073234;28;100447;-15
2021/08/18 10:54:43;;;;;;;10.10;4.80;;;;;;;;;;2072913;28;100738;-17
2021/08/18 10:55:44;;;;;;;9.85;5.35;;;;;;;;;;2076355;27;100661;-18
2021/08/18 10:56:45;;;;;;;10.27;5.05;;;;;;;;;;2082421;28;100164;-17
2021/08/18 10:57:49;;;;;;;13.65;5.75;;;;;;;;;;2080818;27;99969;-19
2021/08/18 10:58:50;;;;;;;6.97;5.18;;;;;;;;;;2082240;27;100176;-19
2021/08/18 10:59:51;;;;;;;;;;;;;;;;;;2082712;27;100047;-19
2021/08/18 11:00:52;;;;;;;10.57;4.68;;;;;;;;;;2082214;28;100373;-19
2021/08/18 11:01:53;;;;;;;15.15;4.82;;;;;;;;;;2082661;27;100064;-20
2021/08/18 11:02:54;;;;;;;;;;;;;;;;;;2082408;27;99962;-18
2021/08/18 11:03:55;;;;;;;12.38;4.82;;;;;;;;;;2082566;27;100087;-18
2021/08/18 11:04:56;;;;;;;10.02;4.78;;;;;;;;;;2080522;28;100000;-16
2021/08/18 11:05:58;;;;;;;10.57;4.57;;;;;;;;;;2072895;28;100272;-17
2021/08/18 11:06:59;;;;;;;11.18;4.93;;;;;;;;;;2080978;28;100333;-19
2021/08/18 11:08:00;;;;;;;;;;;;;;;;;;2081971;27;99882;-21
2021/08/18 11:09:01;;;;;;;10.85;4.65;;;;;;;;;;2082143;27;99958;-17
2021/08/18 11:10:02;;;;;;;;;;;;;;;;;;2081815;28;100423;-17
2021/08/18 11:11:05;;;;;;;10.02;4.95;;;;;;;;;;2081662;28;100053;-16
2021/08/18 11:12:06;;;;;;;10.25;4.70;;;;;;;;;;2082391;27;100032;-18
2021/08/18 11:13:12;;;;;;;9.52;4.65;;;;;;;;;;2082095;27;99973;-20
2021/08/18 11:14:13;;;;;;;9.90;4.47;;;;;;;;;;2081704;28;100537;-19
2021/08/18 11:15:20;;;;;;;9.23;4.70;;;;;;;;;;2073240;28;100038;-21
2021/08/18 11:16:31;;;;;;;9.75;5.20;;;;;;;;;;2081687;28;100119;-17
2021/08/18 11:17:32;;;;;;;8.05;4.53;;;;;;;;;;2081721;28;99989;-21
2021/08/18 11:18:34;;;;;;;;;;;;;;;;;;2081646;28;99999;-19
2021/08/18 11:19:35;;;;;;;10.23;4.97;;;;;;;;;;2081786;28;99953;-18
2021/08/18 11:20:36;;;;;;;;;;;;;;;;;;2082227;27;99987;-19
2021/08/18 11:21:43;;;;;;;6.68;3.90;;;;;;;;;;2081981;28;99958;-20
2021/08/18 11:22:45;;;;;;;9.52;4.90;;;;;;;;;;2081058;28;100061;-19
2021/08/18 11:23:52;;;;;;;9.90;4.80;;;;;;;;;;2081321;28;100022;-17
2021/08/18 11:25:01;;;;;;;7.03;4.00;;;;;;;;;;2082175;28;100010;-17
2021/08/18 11:26:05;;;;;;;12.43;5.05;;;;;;;;;;2082172;27;99952;-19
2021/08/18 11:27:05;;;;;;;9.27;4.75;;;;;;;;;;2080740;28;100162;-18
2021/08/18 11:28:06;;;;;;;;;;;;;;;;;;2082114;28;100067;-18
2021/08/18 11:29:10;;;;;;;8.60;4.65;;;;;;;;;;2082205;28;99974;-17
2021/08/18 11:30:11;;;;;;;8.38;4.60;;;;;;;;;;2082030;28;100026;-16
2021/08/18 11:31:12;;;;;;;8.70;4.35;;;;;;;;;;2081337;27;99991;-18
2021/08/18 11:32:24;;;;;;;11.40;4.63;;;;;;;;;;2081666;28;100309;-20
2021/08/18 11:33:25;;;;;;;8.43;4.80;;;;;;;;;;2081115;28;100715;-18
2021/08/18 11:34:29;;;;;;;11.13;4.90;;;;;;;;;;2081958;27;99951;-20
2021/08/18 11:35:34;;;;;;;10.25;4.85;;;;;;;;;;2081598;27;100070;-16
2021/08/18 11:36:43;;;;;;;8.93;4.60;;;;;;;;;;2081959;27;100025;-20
2021/08/18 11:37:44;;;;;;;8.15;4.35;;;;;;;;;;2081460;27;100057;-19
2021/08/18 11:39:06;;;;;;;10.48;4.28;;;;;;;;;;2081632;28;100267;-17
2021/08/18 11:40:18;;;;;;;9.25;4.70;;;;;;;;;;2075881;28;100330;-16
2021/08/18 11:41:34;;;;;;;7.78;4.68;;;;;;;;;;2074866;28;100135;-17
2021/08/18 11:42:41;;;;;;;8.43;4.32;;;;;;;;;;2081259;28;99997;-18
2021/08/18 11:43:43;;;;;;;9.40;4.38;;;;;;;;;;2082254;28;100001;-18
2021/08/18 11:44:46;;;;;;;8.35;4.70;;;;;;;;;;2081571;27;100009;-18
2021/08/18 11:45:51;;;;;;;10.20;4.93;;;;;;;;;;2081107;28;100127;-18
2021/08/18 11:47:06;;;;;;;15.65;4.80;;;;;;;;;;2081536;28;100116;-16
2021/08/18 11:48:09;;;;;;;11.85;4.70;;;;;;;;;;2081997;27;100427;-20
2021/08/18 11:49:10;;;;;;;7.85;4.47;;;;;;;;;;2081568;27;100305;-20
2021/08/18 11:50:13;;;;;;;9.25;4.40;;;;;;;;;;2082047;28;99998;-18
2021/08/18 11:51:19;;;;;;;10.02;4.50;;;;;;;;;;2081254;28;99953;-17
2021/08/18 11:52:22;;;;;;;6.72;3.92;;;;;;;;;;2073727;28;101199;-17
2021/08/18 11:53:24;;;;;;;6.97;4.35;;;;;;;;;;2080896;28;99985;-18
2021/08/18 11:54:25;;;;;;;8.95;4.30;;;;;;;;;;2081454;27;100577;-18
2021/08/18 11:55:29;;;;;;;6.93;4.28;;;;;;;;;;2081021;28;100422;-16
2021/08/18 11:56:31;;;;;;;10.07;4.18;;;;;;;;;;2080688;28;100264;-17
2021/08/18 11:57:32;;;;;;;24.58;6.85;;;;;;;;;;2080862;28;99913;-18
2021/08/18 11:58:36;;;;;;;152.38;25.63;;;;;;;;;;2080751;27;99979;-19
2021/08/18 11:59:37;;;;;;;136.98;26.33;;;;;;;;;;2081666;28;99810;-20
2021/08/18 12:00:41;;;;;;;155.60;28.77;;;;;;;;;;2080612;28;100056;-18
2021/08/18 12:01:42;;;;;;;181.63;47.40;;;;;;;;;;2080420;28;100232;-17
2021/08/18 12:02:45;;;;;;;;;;;;;;;;;;2079837;28;99995;-20
2021/08/18 12:03:47;;;;;;;192.57;63.92;;;;;;;;;;2080612;28;100063;-19
2021/08/18 12:04:48;;;;;;;123.28;35.75;;;;;;;;;;2072401;28;100055;-17
2021/08/18 12:06:04;;;;;;;184.57;60.65;;;;;;;;;;2081295;28;99994;-17
2021/08/18 12:07:12;;;;;;;160.80;52.05;;;;;;;;;;2081549;27;100686;-16
2021/08/18 12:08:17;;;;;;;132.68;39.30;;;;;;;;;;2081517;28;100065;-20
2021/08/18 12:09:22;;;;;;;122.78;34.92;;;;;;;;;;2080736;28;100122;-19
2021/08/18 12:10:26;;;;;;;117.40;32.92;;;;;;;;;;2081033;28;100023;-19
2021/08/18 12:11:36;;;;;;;107.18;28.35;;;;;;;;;;2080263;28;99966;-16
2021/08/18 12:12:37;;;;;;;79.28;22.40;;;;;;;;;;2080450;28;100225;-27
2021/08/18 12:13:43;;;;;;;76.20;22.70;;;;;;;;;;2078439;28;100061;-16
2021/08/18 12:14:46;;;;;;;64.22;17.08;;;;;;;;;;2081816;28;100082;-16
2021/08/18 12:15:50;;;;;;;92.88;31.58;;;;;;;;;;2081659;28;100120;-19
2021/08/18 12:16:57;;;;;;;64.43;23.92;;;;;;;;;;2081732;28;100074;-17
2021/08/18 12:17:58;;;;;;;65.38;20.42;;;;;;;;;;2081605;27;100254;-16
2021/08/18 12:19:18;;;;;;;;;;;;;;;;;;2081935;28;99840;-18
2021/08/18 12:20:35;;;;;;;49.08;15.43;;;;;;;;;;2082346;27;99896;-15
2021/08/18 12:21:35;;;;;;;56.33;16.08;;;;;;;;;;2081948;27;99947;-17
2021/08/18 12:22:36;;;;;;;;;;;;;;;;;;2082632;27;99869;-19
2021/08/18 12:23:40;;;;;;;44.42;17.27;;;;;;;;;;2078155;28;100041;-17
2021/08/18 12:25:04;;;;;;;48.65;17.13;;;;;;;;;;2072717;28;100039;-16
2021/08/18 12:26:24;;;;;;;55.35;17.45;;;;;;;;;;2073510;28;100033;-20
2021/08/18 12:27:27;;;;;;;48.20;16.38;;;;;;;;;;2073773;28;100123;-19
2021/08/18 12:28:28;;;;;;;43.60;14.65;;;;;;;;;;2073302;28;99957;-18
2021/08/18 12:29:29;;;;;;;;;;;;;;;;;;2072914;28;100242;-17
2021/08/18 12:30:33;;;;;;;35.92;13.93;;;;;;;;;;2073158;28;100028;-19
2021/08/18 12:31:55;;;;;;;49.85;14.02;;;;;;;;;;2072886;28;100146;-20
2021/08/18 12:33:16;;;;;;;49.45;15.43;;;;;;;;;;2073140;28;100022;-18
2021/08/18 12:34:27;;;;;;;40.50;13.88;;;;;;;;;;2073254;28;99982;-20
2021/08/18 12:35:28;;;;;;;48.35;14.38;;;;;;;;;;2073656;28;99991;-18
2021/08/18 12:36:42;;;;;;;41.42;14.80;;;;;;;;;;2073350;28;100314;-19
2021/08/18 12:37:52;;;;;;;43.65;15.80;;;;;;;;;;2073381;28;100000;-17
2021/08/18 12:38:54;;;;;;;43.50;14.00;;;;;;;;;;2073581;28;100578;-17
2021/08/18 12:39:56;;;;;;;45.50;14.10;;;;;;;;;;2073350;28;100526;-17
2021/08/18 12:41:07;;;;;;;46.72;15.88;;;;;;;;;;2072776;28;100095;-19
2021/08/18 12:42:10;;;;;;;45.03;13.18;;;;;;;;;;2073691;28;100096;-15
2021/08/18 12:43:19;;;;;;;44.20;12.57;;;;;;;;;;2080659;28;100171;-16
2021/08/18 12:44:29;;;;;;;39.72;13.52;;;;;;;;;;2073560;28;99963;-18
2021/08/18 12:45:34;;;;;;;43.33;13.55;;;;;;;;;;2073122;28;100185;-20
2021/08/18 12:46:38;;;;;;;46.78;13.52;;;;;;;;;;2065191;28;99919;-18
2021/08/18 12:47:42;;;;;;;38.53;13.25;;;;;;;;;;2065131;28;99868;-19
2021/08/18 12:48:43;;;;;;;41.35;13.68;;;;;;;;;;2072635;28;100613;-18
2021/08/18 12:49:50;;;;;;;39.33;13.10;;;;;;;;;;2073072;28;99912;-17
2021/08/18 12:50:51;;;;;;;36.55;12.57;;;;;;;;;;2073277;28;100123;-18
2021/08/18 12:51:53;;;;;;;46.30;14.20;;;;;;;;;;2064004;28;100570;-17
2021/08/18 12:52:55;;;;;;;40.17;13.57;;;;;;;;;;2064238;28;100009;-20
2021/08/18 12:53:56;;;;;;;46.00;13.93;;;;;;;;;;2072748;28;100056;-19
2021/08/18 12:54:59;;;;;;;;;;;;;;;;;;2074398;28;100039;-21
2021/08/18 12:55:59;;;;;;;48.40;19.30;;;;;;;;;;2073367;28;99908;-16
2021/08/18 12:57:03;;;;;;;;;;;;;;;;;;2076155;28;101730;-21
2021/08/18 12:58:21;;;;;;;48.40;19.10;;;;;;;;;;2081347;27;99939;-21
2021/08/18 12:59:22;;;;;;;44.00;18.90;;;;;;;;;;2080461;28;100125;-17
2021/08/18 13:00:25;;;;;;;33.55;14.05;;;;;;;;;;2080994;28;100157;-17
2021/08/18 13:01:26;;;;;;;32.60;12.13;;;;;;;;;;2081276;28;100043;-19
2021/08/18 13:02:27;;;;;;;;;;;;;;;;;;2081475;28;99972;-19
2021/08/18 13:03:29;;;;;;;38.20;12.45;;;;;;;;;;2081060;28;99924;-17
2021/08/18 13:04:30;;;;;;;30.30;12.10;;;;;;;;;;2081090;27;99950;-18
2021/08/18 13:05:32;;;;;;;29.02;10.32;;;;;;;;;;2081583;27;99927;-18
2021/08/18 13:06:33;;;;;;;;;;;;;;;;;;2081640;28;99968;-20
2021/08/18 13:07:34;;;;;;;22.20;9.77;;;;;;;;;;2081376;28;100219;-17
2021/08/18 13:08:36;;;;;;;;;;;;;;;;;;2081683;28;99964;-20
2021/08/18 13:09:37;;;;;;;26.60;8.75;;;;;;;;;;2064736;28;99868;-16
2021/08/18 13:10:38;;;;;;;;;;;;;;;;;;2073605;28;99847;-18
2021/08/18 13:11:39;;;;;;;19.42;8.65;;;;;;;;;;2089504;27;99993;-16
2021/08/18 13:12:40;;;;;;;;;;;;;;;;;;2081742;28;100104;-19
2021/08/18 13:13:41;;;;;;;22.15;8.93;;;;;;;;;;2080919;28;100044;-17
2021/08/18 13:14:42;;;;;;;16.95;7.53;;;;;;;;;;2081723;27;99990;-17
2021/08/18 13:15:43;;;;;;;;;;;;;;;;;;2082285;27;100012;-17
2021/08/18 13:16:44;;;;;;;19.23;8.07;;;;;;;;;;2082272;27;100034;-18
2021/08/18 13:17:45;;;;;;;23.73;7.85;;;;;;;;;;2081728;27;100033;-17
2021/08/18 13:18:46;;;;;;;;;;;;;;;;;;2082132;27;99908;-17
2021/08/18 13:19:47;;;;;;;;;;;;;;;;;;2073048;28;100334;-17
2021/08/18 13:20:48;;;;;;;16.20;6.50;;;;;;;;;;2073348;28;99875;-19
2021/08/18 13:21:49;;;;;;;14.13;6.53;;;;;;;;;;2081779;27;99836;-18
2021/08/18 13:22:50;;;;;;;18.10;6.80;;;;;;;;;;2082100;27;99876;-17
2021/08/18 13:23:50;;;;;;;;;;;;;;;;;;2081921;28;100057;-17
2021/08/18 13:24:51;;;;;;;17.40;6.53;;;;;;;;;;2081614;28;99918;-16
2021/08/18 13:25:52;;;;;;;16.52;6.80;;;;;;;;;;2081715;27;100885;-17
2021/08/18 13:26:56;;;;;;;16.27;6.13;;;;;;;;;;2082157;28;99908;-18
2021/08/18 13:27:57;;;;;;;14.68;6.38;;;;;;;;;;2081549;27;100074;-18
2021/08/18 13:28:59;;;;;;;;;;;;;;;;;;2081471;28;99981;-21
2021/08/18 13:30:00;;;;;;;12.55;5.95;;;;;;;;;;2081019;28;100019;-17
2021/08/18 13:31:00;;;;;;;;;;;;;;;;;;2083545;28;99946;-15
2021/08/18 13:32:01;;;;;;;16.07;5.23;;;;;;;;;;2083184;27;100219;-17
2021/08/18 13:33:03;;;;;;;13.98;5.50;;;;;;;;;;2082584;28;100366;-18
2021/08/18 13:34:05;;;;;;;;;;;;;;;;;;2082826;28;100341;-16
2021/08/18 13:35:06;;;;;;;12.00;5.15;;;;;;;;;;2083335;28;99845;-15
2021/08/18 13:36:07;;;;;;;9.07;4.68;;;;;;;;;;2083100;27;99898;-19
2021/08/18 13:37:08;;;;;;;;;;;;;;;;;;2084020;27;99868;-17
2021/08/18 13:38:09;;;;;;;11.18;5.03;;;;;;;;;;2083377;27;99843;-17
2021/08/18 13:39:10;;;;;;;12.63;4.57;;;;;;;;;;2083342;27;100002;-16
2021/08/18 13:40:11;;;;;;;;;;;;;;;;;;2083713;27;99999;-19
2021/08/18 13:41:12;;;;;;;9.27;4.35;;;;;;;;;;2083442;27;99938;-16
2021/08/18 13:42:13;;;;;;;10.63;4.65;;;;;;;;;;2083303;27;99925;-19
2021/08/18 13:43:13;;;;;;;;;;;;;;;;;;2083309;28;99890;-19
2021/08/18 13:44:14;;;;;;;10.32;4.20;;;;;;;;;;2082478;28;100189;-18
2021/08/18 13:45:15;;;;;;;11.75;4.55;;;;;;;;;;2083320;28;100055;-18
2021/08/18 13:46:16;;;;;;;;;;;;;;;;;;2084048;27;99685;-17
2021/08/18 13:47:18;;;;;;;8.80;3.70;;;;;;;;;;2083070;27;100327;-16
2021/08/18 13:48:19;;;;;;;;;;;;;;;;;;2083715;27;99821;-18
2021/08/18 13:49:20;;;;;;;8.85;4.07;;;;;;;;;;2083119;27;99887;-17
2021/08/18 13:50:24;;;;;;;9.00;3.80;;;;;;;;;;2083295;27;99908;-20
2021/08/18 13:51:26;;;;;;;8.07;3.88;;;;;;;;;;2083451;28;100300;-19
2021/08/18 13:52:27;;;;;;;9.23;4.38;;;;;;;;;;2082879;27;99956;-14
2021/08/18 13:53:27;;;;;;;;;;;;;;;;;;2083743;27;100036;-17
2021/08/18 13:54:29;;;;;;;6.63;3.55;;;;;;;;;;2082686;27;99939;-18
2021/08/18 13:55:30;;;;;;;;;;;;;;;;;;2083845;27;100193;-17
2021/08/18 13:56:32;;;;;;;9.52;3.47;;;;;;;;;;2082412;28;99916;-17
2021/08/18 13:57:33;;;;;;;6.45;3.42;;;;;;;;;;2082555;28;100374;-18
2021/08/18 13:58:34;;;;;;;6.32;3.75;;;;;;;;;;2083455;28;100257;-20
2021/08/18 13:59:36;;;;;;;5.38;3.25;;;;;;;;;;2083142;27;99801;-20
2021/08/18 14:00:37;;;;;;;;;;;;;;;;;;2083627;27;99800;-17
2021/08/18 14:01:38;;;;;;;7.47;3.47;;;;;;;;;;2082538;28;101239;-21
2021/08/18 14:02:39;;;;;;;;;;;;;;;;;;2083038;28;100163;-19
2021/08/18 14:03:40;;;;;;;8.95;3.17;;;;;;;;;;2083330;27;99791;-20
2021/08/18 14:04:40;;;;;;;;;;;;;;;;;;2083672;27;99832;-18
2021/08/18 14:05:41;;;;;;;7.63;3.22;;;;;;;;;;2083167;27;100244;-18
2021/08/18 14:06:43;;;;;;;;;;;;;;;;;;2083606;28;99899;-19
2021/08/18 14:07:44;;;;;;;10.73;3.53;;;;;;;;;;2083291;27;99976;-19
2021/08/18 14:08:47;;;;;;;3.95;2.50;;;;;;;;;;2082460;28;100013;-14
2021/08/18 14:09:47;;;;;;;6.35;2.80;;;;;;;;;;2082467;28;100003;-18
2021/08/18 14:10:48;;;;;;;;;;;;;;;;;;2083461;27;100190;-16
2021/08/18 14:11:49;;;;;;;6.13;3.35;;;;;;;;;;2083358;28;99784;-20
2021/08/18 14:12:50;;;;;;;5.55;2.85;;;;;;;;;;2083390;27;100024;-16
2021/08/18 14:13:51;;;;;;;;;;;;;;;;;;2083350;27;99967;-19
2021/08/18 14:14:52;;;;;;;6.15;2.85;;;;;;;;;;2083206;27;100128;-20
2021/08/18 14:15:52;;;;;;;;;;;;;;;;;;2083406;27;100235;-19
2021/08/18 14:16:53;;;;;;;4.47;2.67;;;;;;;;;;2082945;27;99994;-17
2021/08/18 14:17:54;;;;;;;6.38;2.97;;;;;;;;;;2082124;27;100404;-18
2021/08/18 14:18:57;;;;;;;;;;;;;;;;;;2082909;28;99926;-18
2021/08/18 14:19:58;;;;;;;5.57;2.60;;;;;;;;;;2082994;28;100158;-17
2021/08/18 14:20:59;;;;;;;;;;;;;;;;;;2083661;27;99820;-19
2021/08/18 14:22:00;;;;;;;4.53;2.75;;;;;;;;;;2083474;28;99803;-20
2021/08/18 14:23:01;;;;;;;6.03;2.88;;;;;;;;;;2082407;28;101066;-17
2021/08/18 14:24:02;;;;;;;4.20;2.58;;;;;;;;;;2065678;28;99937;-20
2021/08/18 14:25:05;;;;;;;6.13;2.80;;;;;;;;;;2074407;28;99959;-17
2021/08/18 14:26:06;;;;;;;5.70;2.80;;;;;;;;;;2083179;28;99898;-17
2021/08/18 14:27:07;;;;;;;4.43;2.60;;;;;;;;;;2082987;28;100031;-18
2021/08/18 14:28:07;;;;;;;;;;;;;;;;;;2083906;27;99869;-16
2021/08/18 14:29:08;;;;;;;5.43;2.60;;;;;;;;;;2082993;28;100220;-17
2021/08/18 14:30:10;;;;;;;5.38;2.50;;;;;;;;;;2082938;28;101457;-19
2021/08/18 14:31:11;;;;;;;3.53;2.30;;;;;;;;;;2082914;28;99953;-18
2021/08/18 14:32:12;;;;;;;;;;;;;;;;;;2083458;27;99854;-19
2021/08/18 14:33:13;;;;;;;6.57;2.90;;;;;;;;;;2083257;28;100010;-15
2021/08/18 14:34:13;;;;;;;;;;;;;;;;;;2083258;27;99981;-19
2021/08/18 14:35:14;;;;;;;5.68;2.20;;;;;;;;;;2082493;28;100000;-16
2021/08/18 14:36:15;;;;;;;4.05;2.58;;;;;;;;;;2074051;28;99917;-19
2021/08/18 14:37:16;;;;;;;;;;;;;;;;;;2082884;28;100075;-20
2021/08/18 14:38:17;;;;;;;5.13;2.97;;;;;;;;;;2083319;28;99974;-18
2021/08/18 14:39:17;;;;;;;4.70;2.63;;;;;;;;;;2073938;28;99880;-19
2021/08/18 14:40:18;;;;;;;;;;;;;;;;;;2074827;28;99795;-16
2021/08/18 14:41:19;;;;;;;3.92;2.20;;;;;;;;;;2082388;27;99932;-20
2021/08/18 14:42:20;;;;;;;4.78;2.85;;;;;;;;;;2083093;27;100187;-18
2021/08/18 14:43:21;;;;;;;;;;;;;;;;;;2083108;27;100386;-16
2021/08/18 14:44:22;;;;;;;4.83;2.80;;;;;;;;;;2082361;28;100142;-19
2021/08/18 14:45:23;;;;;;;;;;;;;;;;;;2082735;28;99941;-16
2021/08/18 14:46:24;;;;;;;5.97;2.67;;;;;;;;;;2083131;27;99972;-17
2021/08/18 14:47:25;;;;;;;5.22;2.47;;;;;;;;;;2082654;27;99922;-18
2021/08/18 14:48:25;;;;;;;4.05;2.28;;;;;;;;;;2083092;27;99959;-17
2021/08/18 14:49:26;;;;;;;;;;;;;;;;;;2083181;27;99997;-19
2021/08/18 14:50:28;;;;;;;6.03;2.90;;;;;;;;;;2082038;28;99863;-17
2021/08/18 14:51:29;;;;;;;4.75;2.30;;;;;;;;;;2081955;28;99783;-17
2021/08/18 14:52:30;;;;;;;5.22;2.50;;;;;;;;;;2083021;27;99875;-17
2021/08/18 14:53:31;;;;;;;4.30;2.60;;;;;;;;;;2082870;27;99971;-20
2021/08/18 14:54:33;;;;;;;3.95;2.50;;;;;;;;;;2082717;27;100079;-19
2021/08/18 14:55:34;;;;;;;5.05;2.42;;;;;;;;;;2082756;28;99834;-18
2021/08/18 14:56:35;;;;;;;6.25;2.42;;;;;;;;;;2081894;28;100274;-16
2021/08/18 14:57:36;;;;;;;;;;;;;;;;;;2082628;28;99949;-20
2021/08/18 14:58:37;;;;;;;4.35;2.45;;;;;;;;;;2081937;28;99873;-16
2021/08/18 14:59:38;;;;;;;5.72;2.42;;;;;;;;;;2073974;28;100051;-19
2021/08/18 15:00:39;;;;;;;;;;;;;;;;;;2082385;28;99885;-19
2021/08/18 15:01:39;;;;;;;4.55;2.28;;;;;;;;;;2082243;28;99976;-16
2021/08/18 15:02:40;;;;;;;5.70;2.67;;;;;;;;;;2082586;27;100419;-21
2021/08/18 15:03:42;;;;;;;3.35;2.20;;;;;;;;;;2082753;28;99965;-16
2021/08/18 15:04:42;;;;;;;;;;;;;;;;;;2073899;28;99999;-21
2021/08/18 15:05:45;;;;;;;4.45;2.38;;;;;;;;;;2065043;28;99902;-17
2021/08/18 15:06:46;;;;;;;4.53;2.40;;;;;;;;;;2081757;28;99995;-16
2021/08/18 15:07:46;;;;;;;;;;;;;;;;;;2082535;28;100015;-19
2021/08/18 15:08:47;;;;;;;4.78;2.30;;;;;;;;;;2073599;28;99849;-17
2021/08/18 15:09:49;;;;;;;5.57;2.70;;;;;;;;;;2082124;28;99886;-19
2021/08/18 15:10:50;;;;;;;3.38;2.15;;;;;;;;;;2082590;27;99779;-16
2021/08/18 15:11:51;;;;;;;4.50;2.90;;;;;;;;;;2081526;28;99959;-19
2021/08/18 15:12:52;;;;;;;;;;;;;;;;;;2082217;28;100072;-16
2021/08/18 15:13:53;;;;;;;3.80;2.10;;;;;;;;;;2082838;27;99953;-16
2021/08/18 15:14:54;;;;;;;4.68;2.40;;;;;;;;;;2082766;27;100027;-19
2021/08/18 15:15:55;;;;;;;5.78;2.40;;;;;;;;;;2082419;27;100134;-16
2021/08/18 15:16:56;;;;;;;3.92;2.05;;;;;;;;;;2081521;28;99901;-21
2021/08/18 15:17:56;;;;;;;;;;;;;;;;;;2082507;28;99996;-19
2021/08/18 15:18:59;;;;;;;4.55;2.20;;;;;;;;;;2082712;28;99896;-19